LFMN/NCE METAR and TAF weather

Enter ICAO airport designator
Station Type Date Time Source
LFMN METAR 2021/09/25 02:30 UTC NOAA

LFMN 250230Z 34008KT CAVOK 20/14 Q1018 NOSIG


Station Type Date Time Source
LFMN Decoded METAR 2021/09/25 02:30 UTC NOAA

Nice, France (LFMN) 43-39N 007-12E 10M
Sep 24, 2021 - 10:30 PM EDT / 2021.09.25 0230 UTC
Wind: from the NNW (340 degrees) at 9 MPH (8 KT):0
Visibility: greater than 7 mile(s):0
Temperature: 68 F (20 C)
Dew Point: 57 F (14 C)
Relative Humidity: 68%
Pressure (altimeter): 30.06 in. Hg (1018 hPa)
ob: LFMN 250230Z 34008KT CAVOK 20/14 Q1018 NOSIG
cycle: 2

Station Type Date Time Source
LFMN TAF 2021/09/25 03:42 UTC NOAA

TAF TAF LFMN 250200Z 2503/2609 34010KT CAVOK PROB30
TEMPO 2504/2508 BKN012
BECMG 2505/2507 08017KT
BECMG 2518/2520 34010KT PROB40
TEMPO 2600/2609 VRB10KT SHRA BKN030 FEW050TCU
BECMG 2607/2609 09010KT BKN020

Example: see airport list